createdAt,value
2022-12-17T00:00:36.530Z,9.70
2022-12-17T00:03:18.443Z,11.05
2022-12-17T00:06:04.053Z,10.63
2022-12-17T00:08:49.483Z,11.02
2022-12-17T00:11:34.821Z,9.27
2022-12-17T00:14:23.293Z,9.75
2022-12-17T00:17:13.286Z,9.98
2022-12-17T00:19:58.831Z,11.50
2022-12-17T00:22:45.443Z,9.75
2022-12-17T00:25:34.091Z,11.77
2022-12-17T00:28:19.808Z,9.82
2022-12-17T00:31:10.240Z,9.30
2022-12-17T00:33:57.320Z,10.80
2022-12-17T00:36:42.895Z,9.77
2022-12-17T00:39:28.360Z,10.88
2022-12-17T00:48:12.465Z,11.30
2022-12-17T00:50:59.372Z,9.65
2022-12-17T00:53:44.787Z,11.00
2022-12-17T00:56:30.116Z,10.60
2022-12-17T00:59:15.562Z,12.15
2022-12-17T01:02:01.254Z,10.50
2022-12-17T01:04:46.584Z,11.93
2022-12-17T01:07:33.239Z,11.43
2022-12-17T01:10:18.740Z,11.85
2022-12-17T01:13:04.234Z,10.00
2022-12-17T01:15:49.884Z,11.40
2022-12-17T01:18:37.039Z,10.55
2022-12-17T01:21:22.269Z,11.38
2022-12-17T01:24:09.236Z,11.15
2022-12-17T01:26:56.219Z,10.23
2022-12-17T01:29:41.852Z,10.73
2022-12-17T01:32:27.309Z,10.75
2022-12-17T01:35:12.856Z,11.27
2022-12-17T01:37:58.397Z,10.02
2022-12-17T01:40:45.262Z,10.27
2022-12-17T01:43:31.883Z,10.68
2022-12-17T01:46:17.738Z,9.73
2022-12-17T01:49:06.064Z,10.80
2022-12-17T01:51:52.542Z,11.70
2022-12-17T01:54:38.455Z,9.63
2022-12-17T01:57:34.588Z,10.02
2022-12-17T02:00:22.840Z,10.32
2022-12-17T02:03:08.324Z,9.98
2022-12-17T02:06:01.838Z,9.45
2022-12-17T02:08:55.642Z,9.68
2022-12-17T02:11:49.584Z,8.82
2022-12-17T02:14:42.182Z,11.65
2022-12-17T02:20:29.037Z,7.18
2022-12-17T02:23:24.642Z,10.88
2022-12-17T02:26:14.147Z,10.07
2022-12-17T02:29:04.556Z,9.40
2022-12-17T02:31:50.739Z,8.75
2022-12-17T02:34:36.288Z,8.95
2022-12-17T02:37:21.953Z,9.55
2022-12-17T02:40:07.479Z,9.63
2022-12-17T02:42:53.400Z,10.73
2022-12-17T02:45:41.706Z,11.63
2022-12-17T02:48:30.908Z,10.25
2022-12-17T02:51:17.136Z,11.02
2022-12-17T02:54:04.140Z,9.27
2022-12-17T02:56:49.375Z,9.18
2022-12-17T02:59:40.281Z,10.05
2022-12-17T03:02:27.136Z,9.75
2022-12-17T03:05:42.887Z,8.70
2022-12-17T03:08:18.274Z,9.80
2022-12-17T03:11:03.546Z,9.15
2022-12-17T03:13:48.994Z,11.30
2022-12-17T03:16:38.081Z,9.65
2022-12-17T03:19:25.100Z,9.68
2022-12-17T03:22:10.738Z,10.13
2022-12-17T03:24:56.145Z,11.23
2022-12-17T03:27:46.166Z,10.65
2022-12-17T03:30:35.778Z,10.63
2022-12-17T03:33:24.184Z,9.27
2022-12-17T03:36:13.068Z,10.48
2022-12-17T03:38:58.595Z,9.52
2022-12-17T03:41:44.146Z,8.85
2022-12-17T03:44:29.694Z,9.00
2022-12-17T03:47:15.166Z,8.35
2022-12-17T03:50:00.707Z,9.63
2022-12-17T03:52:47.872Z,9.02
2022-12-17T03:55:33.699Z,10.18
2022-12-17T03:58:19.202Z,10.15
2022-12-17T04:01:06.685Z,9.18
2022-12-17T04:03:52.238Z,9.07
2022-12-17T04:06:37.847Z,10.65
2022-12-17T04:09:24.764Z,9.82
2022-12-17T04:12:10.258Z,8.23
2022-12-17T04:14:56.038Z,8.75
2022-12-17T04:17:41.368Z,8.73
2022-12-17T04:20:27.475Z,9.18
2022-12-17T04:23:15.538Z,9.02
2022-12-17T04:26:02.294Z,9.13
2022-12-17T04:28:48.029Z,8.93
2022-12-17T04:31:33.825Z,9.30
2022-12-17T04:34:19.400Z,8.75
2022-12-17T04:37:05.012Z,9.70
2022-12-17T04:39:50.240Z,8.85
2022-12-17T04:42:37.374Z,10.73
2022-12-17T04:45:23.547Z,8.93
2022-12-17T04:48:09.121Z,8.68
2022-12-17T04:50:54.415Z,9.15
2022-12-17T04:53:41.611Z,9.50
2022-12-17T04:56:27.231Z,8.85
2022-12-17T04:59:14.026Z,9.50
2022-12-17T05:01:59.712Z,8.13
2022-12-17T05:04:45.121Z,9.05
2022-12-17T05:07:30.414Z,9.98
2022-12-17T05:10:15.919Z,9.35
2022-12-17T05:13:01.343Z,9.90
2022-12-17T05:15:52.948Z,9.23
2022-12-17T05:18:38.884Z,8.95
2022-12-17T05:21:24.928Z,9.27
2022-12-17T05:24:10.621Z,8.90
2022-12-17T05:26:56.206Z,8.20
2022-12-17T05:29:42.839Z,10.85
2022-12-17T05:32:29.582Z,8.95
2022-12-17T05:35:15.060Z,9.45
2022-12-17T05:38:02.978Z,8.55
2022-12-17T05:40:48.546Z,9.38
2022-12-17T05:43:34.303Z,8.70
2022-12-17T05:46:21.363Z,10.63
2022-12-17T05:49:08.417Z,8.85
2022-12-17T05:51:53.844Z,9.43
2022-12-17T05:54:40.898Z,9.93
2022-12-17T05:57:26.581Z,10.88
2022-12-17T06:00:12.037Z,8.90
2022-12-17T06:02:59.971Z,10.07
2022-12-17T06:05:47.032Z,8.88
2022-12-17T06:08:32.366Z,9.73
2022-12-17T06:11:19.143Z,8.32
2022-12-17T06:14:05.836Z,9.57
2022-12-17T06:16:51.475Z,9.15
2022-12-17T06:19:37.199Z,9.30
2022-12-17T06:22:23.996Z,9.82
2022-12-17T06:25:12.474Z,8.93
2022-12-17T06:27:58.118Z,9.60
2022-12-17T06:30:43.786Z,9.07
2022-12-17T06:33:31.046Z,10.73
2022-12-17T06:36:22.637Z,10.30
2022-12-17T06:39:10.236Z,7.03
2022-12-17T06:42:02.198Z,8.43
2022-12-17T06:44:49.580Z,10.10
2022-12-17T06:47:35.489Z,9.77
2022-12-17T06:50:23.578Z,9.40
2022-12-17T06:53:17.744Z,9.13
2022-12-17T06:56:06.337Z,9.10
2022-12-17T06:58:52.028Z,9.27
2022-12-17T07:01:40.845Z,10.40
2022-12-17T07:04:29.871Z,9.63
2022-12-17T07:07:18.327Z,10.10
2022-12-17T07:10:05.908Z,9.68
2022-12-17T07:12:56.331Z,10.18
2022-12-17T07:15:42.062Z,9.85
2022-12-17T07:18:27.534Z,11.40
2022-12-17T07:21:12.939Z,8.55
2022-12-17T07:24:01.179Z,9.68
2022-12-17T07:26:46.451Z,10.50
2022-12-17T07:29:33.190Z,10.25
2022-12-17T07:32:18.727Z,8.95
2022-12-17T07:35:06.036Z,11.77
2022-12-17T07:37:51.596Z,10.20
2022-12-17T07:40:37.072Z,9.65
2022-12-17T07:43:29.540Z,10.65
2022-12-17T07:46:16.617Z,7.95
2022-12-17T07:49:02.242Z,10.20
2022-12-17T07:51:47.667Z,9.98
2022-12-17T07:54:33.365Z,11.52
2022-12-17T07:57:19.171Z,10.27
2022-12-17T08:00:04.407Z,12.13
2022-12-17T08:02:51.594Z,10.90
2022-12-17T08:05:37.278Z,10.45
2022-12-17T08:08:26.718Z,12.38
2022-12-17T08:11:12.091Z,11.75
2022-12-17T08:13:57.076Z,13.90
2022-12-17T08:16:42.691Z,13.60
2022-12-17T08:19:30.048Z,14.32
2022-12-17T08:22:15.524Z,14.38
2022-12-17T08:25:01.071Z,11.40
2022-12-17T08:27:46.688Z,14.35
2022-12-17T08:30:32.634Z,14.00
2022-12-17T08:33:23.277Z,13.82
2022-12-17T08:36:14.143Z,15.40
2022-12-17T08:39:00.056Z,13.00
2022-12-17T08:41:49.708Z,13.27
2022-12-17T08:47:25.179Z,11.70
2022-12-17T08:50:10.701Z,17.02
2022-12-17T08:52:57.479Z,15.38
2022-12-17T08:55:42.734Z,13.75
2022-12-17T08:58:28.394Z,15.93
2022-12-17T09:01:17.222Z,16.27
2022-12-17T09:04:03.627Z,14.68
2022-12-17T09:06:49.154Z,14.52
2022-12-17T09:09:46.299Z,17.67
2022-12-17T09:12:31.799Z,16.40
2022-12-17T09:15:17.080Z,14.30
2022-12-17T09:18:02.729Z,15.40
2022-12-17T09:20:48.013Z,16.48
2022-12-17T09:23:34.547Z,16.80
2022-12-17T09:26:24.422Z,16.52
2022-12-17T09:29:09.835Z,14.18
2022-12-17T09:31:55.301Z,15.13
2022-12-17T09:34:41.121Z,14.82
2022-12-17T09:37:26.578Z,14.90
2022-12-17T09:40:12.292Z,15.23
2022-12-17T09:43:04.130Z,16.55
2022-12-17T09:45:54.808Z,16.95
2022-12-17T09:48:49.794Z,17.05
2022-12-17T09:51:41.118Z,18.23
2022-12-17T09:54:37.302Z,18.38
2022-12-17T09:57:24.727Z,16.83
2022-12-17T10:00:11.891Z,20.75
2022-12-17T10:03:00.060Z,20.23
2022-12-17T10:05:49.166Z,18.35
2022-12-17T10:08:38.878Z,17.65
2022-12-17T10:11:47.247Z,15.23
2022-12-17T10:14:36.535Z,19.10
2022-12-17T10:17:24.043Z,17.35
2022-12-17T10:20:12.598Z,17.33
2022-12-17T10:23:03.030Z,18.08
2022-12-17T10:25:48.357Z,18.85
2022-12-17T10:28:35.661Z,19.52
2022-12-17T10:31:28.028Z,16.75
2022-12-17T10:34:16.543Z,17.35
2022-12-17T10:37:07.412Z,18.27
2022-12-17T10:39:56.206Z,16.92
2022-12-17T10:42:43.884Z,19.60
2022-12-17T10:45:41.097Z,18.20
2022-12-17T10:48:40.739Z,21.13
2022-12-17T10:51:39.980Z,20.55
2022-12-17T10:54:34.335Z,20.35
2022-12-17T10:57:20.355Z,20.00
2022-12-17T11:00:06.388Z,20.00
2022-12-17T11:02:52.117Z,17.88
2022-12-17T11:05:45.511Z,20.80
2022-12-17T11:08:35.000Z,19.92
2022-12-17T11:11:26.537Z,20.13
2022-12-17T11:14:18.697Z,19.17
2022-12-17T11:17:11.211Z,13.52
2022-12-17T11:20:02.979Z,19.58
2022-12-17T11:22:55.433Z,17.10
2022-12-17T11:25:57.221Z,16.15
2022-12-17T11:28:47.815Z,17.58
2022-12-17T11:31:58.843Z,18.50
2022-12-17T11:34:55.061Z,17.88
2022-12-17T11:37:50.543Z,19.20
2022-12-17T11:40:43.507Z,19.88
2022-12-17T11:43:39.218Z,21.20
2022-12-17T11:46:33.869Z,17.85
2022-12-17T11:49:28.497Z,19.80
2022-12-17T11:52:23.356Z,19.00
2022-12-17T11:55:17.885Z,20.73
2022-12-17T11:58:14.059Z,23.45
2022-12-17T12:01:09.237Z,20.73
2022-12-17T12:04:07.163Z,19.83
2022-12-17T12:07:00.448Z,20.88
2022-12-17T12:09:52.323Z,19.58
2022-12-17T12:12:52.675Z,15.93
2022-12-17T12:15:45.244Z,19.15
2022-12-17T12:21:44.085Z,22.05
2022-12-17T12:24:40.794Z,17.90
2022-12-17T12:27:42.260Z,20.08
2022-12-17T12:30:34.290Z,23.80
2022-12-17T12:33:30.084Z,23.00
2022-12-17T12:36:20.529Z,21.05
2022-12-17T12:39:10.268Z,19.45
2022-12-17T12:42:15.179Z,21.48
2022-12-17T12:45:07.824Z,18.27
2022-12-17T12:50:49.210Z,17.13
2022-12-17T12:53:36.224Z,20.70
2022-12-17T12:56:22.126Z,20.85
2022-12-17T12:59:07.998Z,21.38
2022-12-17T13:01:55.625Z,21.95
2022-12-17T13:04:49.562Z,22.75
2022-12-17T13:07:26.091Z,18.55
2022-12-17T13:09:57.814Z,17.88
2022-12-17T13:12:36.164Z,13.80
2022-12-17T13:15:32.795Z,21.08
2022-12-17T13:18:16.377Z,22.30
2022-12-17T13:20:44.793Z,20.08
2022-12-17T13:23:27.622Z,20.75
2022-12-17T13:26:17.127Z,20.40
2022-12-17T13:28:51.387Z,20.38
2022-12-17T13:31:24.726Z,21.65
2022-12-17T13:34:01.622Z,22.83
2022-12-17T13:36:35.990Z,20.85
2022-12-17T13:39:11.333Z,20.27
2022-12-17T13:41:40.807Z,19.65
2022-12-17T13:44:21.524Z,21.10
2022-12-17T13:46:53.477Z,18.40
2022-12-17T13:49:23.965Z,19.65
2022-12-17T13:52:09.581Z,22.45
2022-12-17T13:54:42.467Z,21.80
2022-12-17T13:57:16.851Z,21.48
2022-12-17T13:59:52.214Z,20.35
2022-12-17T14:02:28.720Z,17.08
2022-12-17T14:05:00.729Z,21.17
2022-12-17T14:07:36.132Z,18.52
2022-12-17T14:10:05.509Z,17.33
2022-12-17T14:12:35.446Z,17.55
2022-12-17T14:15:08.291Z,16.10
2022-12-17T14:17:39.257Z,20.80
2022-12-17T14:20:12.264Z,17.73
2022-12-17T14:22:47.818Z,19.45
2022-12-17T14:25:21.735Z,14.80
2022-12-17T14:27:57.713Z,17.48
2022-12-17T14:30:34.428Z,19.05
2022-12-17T14:33:02.452Z,17.58
2022-12-17T14:35:37.988Z,16.98
2022-12-17T14:38:06.109Z,17.50
2022-12-17T14:40:34.307Z,18.30
2022-12-17T14:43:03.688Z,18.13
2022-12-17T14:45:31.744Z,17.98
2022-12-17T14:48:01.222Z,19.77
2022-12-17T14:50:32.606Z,17.42
2022-12-17T14:53:01.591Z,14.00
2022-12-17T14:55:35.746Z,17.80
2022-12-17T14:58:18.068Z,18.92
2022-12-17T15:00:51.474Z,15.50
2022-12-17T15:03:22.925Z,17.13
2022-12-17T15:05:54.487Z,16.27
2022-12-17T15:08:22.808Z,21.05
2022-12-17T15:10:50.815Z,18.85
2022-12-17T15:13:20.138Z,23.67
2022-12-17T15:15:48.075Z,20.38
2022-12-17T15:18:16.001Z,19.20
2022-12-17T15:20:48.706Z,21.38
2022-12-17T15:23:18.777Z,18.35
2022-12-17T15:25:47.851Z,21.42
2022-12-17T15:28:19.288Z,18.50
2022-12-17T15:30:49.534Z,16.02
2022-12-17T15:33:17.945Z,19.05
2022-12-17T15:35:45.942Z,16.98
2022-12-17T15:38:13.971Z,18.90
2022-12-17T15:40:42.176Z,21.10
2022-12-17T15:43:13.971Z,17.00
2022-12-17T15:48:26.705Z,20.60
2022-12-17T15:50:54.683Z,19.70
2022-12-17T15:53:24.976Z,19.52
2022-12-17T15:56:04.097Z,20.77
2022-12-17T15:58:32.569Z,18.80
2022-12-17T16:01:01.712Z,16.98
2022-12-17T16:03:33.533Z,16.60
2022-12-17T16:06:02.644Z,18.35
2022-12-17T16:08:32.871Z,19.88
2022-12-17T16:11:06.361Z,18.65
2022-12-17T16:13:34.310Z,19.08
2022-12-17T16:16:06.324Z,18.35
2022-12-17T16:18:38.564Z,20.02
2022-12-17T16:21:08.499Z,20.65
2022-12-17T16:23:36.915Z,18.38
2022-12-17T16:26:06.804Z,19.42
2022-12-17T16:28:36.152Z,18.70
2022-12-17T16:31:07.929Z,14.85
2022-12-17T16:33:38.934Z,13.23
2022-12-17T16:36:08.855Z,17.45
2022-12-17T16:38:37.289Z,17.00
2022-12-17T16:41:08.626Z,17.45
2022-12-17T16:43:36.799Z,18.13
2022-12-17T16:46:09.218Z,17.67
2022-12-17T16:48:41.511Z,17.40
2022-12-17T16:51:21.478Z,16.25
2022-12-17T16:53:57.637Z,18.20
2022-12-17T16:56:28.351Z,14.65
2022-12-17T16:58:56.357Z,17.58
2022-12-17T17:01:27.116Z,18.58
2022-12-17T17:03:56.822Z,16.83
2022-12-17T17:06:30.118Z,16.70
2022-12-17T17:09:03.844Z,16.80
2022-12-17T17:11:31.936Z,17.27
2022-12-17T17:13:59.895Z,18.00
2022-12-17T17:16:28.255Z,18.77
2022-12-17T17:18:58.127Z,16.88
2022-12-17T17:21:29.439Z,18.42
2022-12-17T17:24:00.999Z,12.18
2022-12-17T17:26:30.226Z,13.23
2022-12-17T17:28:58.349Z,21.05
2022-12-17T17:32:01.286Z,19.90
2022-12-17T17:34:16.758Z,17.55
2022-12-17T17:36:44.871Z,18.52
2022-12-17T17:39:18.791Z,20.15
2022-12-17T17:41:46.765Z,19.15
2022-12-17T17:44:17.312Z,18.00
2022-12-17T17:46:45.398Z,17.67
2022-12-17T17:49:17.433Z,17.13
2022-12-17T17:54:35.365Z,18.52
2022-12-17T17:57:03.298Z,16.75
2022-12-17T17:59:35.550Z,18.02
2022-12-17T18:02:04.420Z,16.67
2022-12-17T18:04:35.500Z,16.08
2022-12-17T18:09:52.748Z,16.95
2022-12-17T18:12:38.197Z,14.50
2022-12-17T18:15:16.273Z,15.63
2022-12-17T18:17:50.620Z,15.10
2022-12-17T18:20:21.352Z,15.17
2022-12-17T18:22:51.826Z,15.70
2022-12-17T18:25:19.953Z,16.27
2022-12-17T18:27:47.882Z,18.58
2022-12-17T18:30:16.946Z,16.23
2022-12-17T18:32:50.582Z,17.92
2022-12-17T18:35:18.576Z,18.13
2022-12-17T18:37:46.747Z,16.77
2022-12-17T18:40:19.286Z,18.73
2022-12-17T18:43:04.810Z,16.67
2022-12-17T18:45:32.711Z,19.58
2022-12-17T18:48:00.664Z,21.08
2022-12-17T18:50:28.657Z,17.88
2022-12-17T18:52:56.621Z,15.80
2022-12-17T18:55:25.941Z,18.55
2022-12-17T18:57:53.878Z,18.95
2022-12-17T19:00:22.205Z,16.80
2022-12-17T19:02:50.239Z,18.08
2022-12-17T19:05:18.353Z,19.08
2022-12-17T19:07:46.278Z,19.17
2022-12-17T19:10:14.234Z,17.88
2022-12-17T19:12:43.530Z,17.17
2022-12-17T19:15:12.740Z,17.58
2022-12-17T19:17:40.718Z,16.80
2022-12-17T19:20:10.090Z,16.45
2022-12-17T19:22:38.158Z,19.40
2022-12-17T19:25:06.727Z,21.67
2022-12-17T19:27:34.733Z,17.17
2022-12-17T19:30:04.140Z,17.70
2022-12-17T19:32:32.235Z,16.80
2022-12-17T19:35:00.194Z,19.52
2022-12-17T19:37:28.191Z,17.10
2022-12-17T19:39:56.229Z,17.42
2022-12-17T19:42:32.094Z,16.23
2022-12-17T19:45:04.884Z,20.60
2022-12-17T19:47:32.827Z,18.83
2022-12-17T19:50:00.815Z,20.17
2022-12-17T19:52:28.848Z,21.25
2022-12-17T19:54:56.758Z,15.82
2022-12-17T19:57:26.630Z,16.23
2022-12-17T19:59:57.493Z,19.88
2022-12-17T20:02:32.292Z,18.10
2022-12-17T20:05:00.931Z,20.92
2022-12-17T20:07:28.959Z,17.45
2022-12-17T20:09:56.871Z,17.58
2022-12-17T20:12:24.842Z,20.15
2022-12-17T20:14:52.777Z,18.55
2022-12-17T20:17:20.784Z,17.17
2022-12-17T20:19:53.273Z,15.93
2022-12-17T20:22:21.399Z,18.02
2022-12-17T20:24:50.283Z,17.83
2022-12-17T20:27:18.573Z,15.75
2022-12-17T20:29:46.519Z,18.83
2022-12-17T20:32:14.475Z,16.52
2022-12-17T20:34:42.530Z,20.35
2022-12-17T20:37:11.856Z,21.42
2022-12-17T20:39:39.917Z,17.92
2022-12-17T20:42:10.310Z,17.80
2022-12-17T20:44:38.366Z,19.30
2022-12-17T20:47:06.745Z,20.60
2022-12-17T20:49:34.923Z,19.95
2022-12-17T20:52:02.871Z,17.38
2022-12-17T20:54:32.476Z,18.10
2022-12-17T20:57:01.173Z,18.55
2022-12-17T20:59:34.891Z,18.90
2022-12-17T21:02:03.113Z,18.33
2022-12-17T21:04:31.332Z,18.02
2022-12-17T21:06:59.299Z,16.15
2022-12-17T21:09:27.371Z,17.88
2022-12-17T21:11:58.093Z,18.85
2022-12-17T21:14:30.434Z,18.42
2022-12-17T21:17:04.917Z,18.15
2022-12-17T21:19:33.462Z,16.63
2022-12-17T21:22:01.837Z,17.42
2022-12-17T21:24:29.890Z,19.25
2022-12-17T21:26:59.506Z,15.95
2022-12-17T21:29:28.552Z,16.95
2022-12-17T21:31:56.761Z,18.98
2022-12-17T21:34:29.245Z,17.38
2022-12-17T21:36:57.463Z,15.82
2022-12-17T21:39:25.449Z,15.90
2022-12-17T21:42:11.021Z,17.55
2022-12-17T21:44:40.424Z,15.50
2022-12-17T21:47:10.986Z,15.95
2022-12-17T21:49:39.071Z,18.30
2022-12-17T21:52:07.140Z,18.25
2022-12-17T21:54:37.087Z,15.70
2022-12-17T21:57:05.671Z,18.73
2022-12-17T21:59:33.760Z,16.75
2022-12-17T22:02:03.502Z,16.23
2022-12-17T22:04:31.784Z,16.73
2022-12-17T22:07:11.868Z,16.70
2022-12-17T22:09:51.610Z,19.92
2022-12-17T22:12:52.078Z,15.40
2022-12-17T22:15:20.375Z,17.15
2022-12-17T22:17:52.011Z,16.92
2022-12-17T22:20:20.553Z,17.13
2022-12-17T22:22:48.749Z,15.38
2022-12-17T22:25:17.639Z,16.27
2022-12-17T22:27:45.753Z,16.00
2022-12-17T22:30:34.583Z,15.70
2022-12-17T22:33:11.654Z,18.00
2022-12-17T22:42:41.842Z,19.35
2022-12-17T22:44:46.296Z,15.73
2022-12-17T22:45:08.108Z,18.02
2022-12-17T22:47:42.841Z,17.70
2022-12-17T22:50:24.466Z,18.45
2022-12-17T22:55:44.683Z,18.52
2022-12-17T22:58:12.706Z,19.33
2022-12-17T23:00:41.192Z,14.32
2022-12-17T23:03:09.245Z,16.63
2022-12-17T23:05:38.767Z,15.85
2022-12-17T23:08:07.123Z,17.65
2022-12-17T23:10:35.438Z,17.55
2022-12-17T23:13:03.561Z,17.35
2022-12-17T23:15:34.277Z,16.10
2022-12-17T23:18:04.359Z,17.58
2022-12-17T23:20:34.289Z,19.40
2022-12-17T23:23:03.800Z,21.17
2022-12-17T23:25:32.517Z,19.95
2022-12-17T23:28:03.451Z,17.02
2022-12-17T23:30:31.977Z,17.85
2022-12-17T23:33:02.802Z,19.38
2022-12-17T23:35:33.420Z,18.70
2022-12-17T23:38:02.830Z,17.27
2022-12-17T23:40:30.864Z,18.52
2022-12-17T23:43:03.414Z,18.13
2022-12-17T23:45:56.946Z,14.63
2022-12-17T23:48:47.064Z,16.55
2022-12-17T23:51:32.600Z,15.82
2022-12-17T23:54:18.004Z,19.48
2022-12-17T23:56:57.849Z,17.33
2022-12-17T23:59:33.766Z,14.30
